createdAt,value
2022-08-10T04:02:54.630Z,102047.00
2022-08-10T04:05:24.603Z,102052.00
2022-08-10T04:08:08.226Z,102051.00
2022-08-10T04:10:36.526Z,102058.00
2022-08-10T04:13:04.765Z,102054.00
2022-08-10T04:18:06.439Z,102056.00
2022-08-10T04:20:41.509Z,102054.00
2022-08-10T04:23:14.877Z,102062.00
2022-08-10T04:25:43.219Z,102057.00
2022-08-10T04:28:12.817Z,102048.00
2022-08-10T04:30:43.625Z,102053.00
2022-08-10T04:33:18.727Z,102056.00
2022-08-10T04:35:48.869Z,102064.00
2022-08-10T04:38:19.981Z,102068.00
2022-08-10T04:40:49.075Z,102066.00
2022-08-10T04:43:17.365Z,102061.00
2022-08-10T04:45:47.797Z,102061.00
2022-08-10T04:48:43.066Z,102063.00
2022-08-10T04:51:17.102Z,102065.00
2022-08-10T04:54:05.772Z,102067.00
2022-08-10T04:56:37.237Z,102073.00
2022-08-10T04:59:06.900Z,102075.00
2022-08-10T05:02:12.245Z,102074.00
2022-08-10T05:04:36.022Z,102074.00
2022-08-10T05:07:15.948Z,102076.00
2022-08-10T05:10:01.154Z,102073.00
2022-08-10T05:12:34.631Z,102077.00
2022-08-10T05:15:09.811Z,102085.00
2022-08-10T05:17:39.396Z,102080.00
2022-08-10T05:20:12.488Z,102081.00
2022-08-10T05:22:43.869Z,102091.00
2022-08-10T05:25:16.139Z,102089.00
2022-08-10T05:27:45.925Z,102092.00
2022-08-10T05:30:18.530Z,102092.00
2022-08-10T05:32:57.472Z,102091.00
2022-08-10T05:35:55.340Z,102094.00
2022-08-10T05:38:22.281Z,102095.00
2022-08-10T05:40:51.300Z,102100.00
2022-08-10T05:43:21.933Z,102101.00
2022-08-10T05:46:17.455Z,102102.00
2022-08-10T05:48:58.579Z,102109.00
2022-08-10T05:51:31.078Z,102096.00
2022-08-10T05:54:04.650Z,102103.00
2022-08-10T05:56:55.325Z,102111.00
2022-08-10T06:00:33.033Z,102112.00
2022-08-10T06:02:31.363Z,102113.00
2022-08-10T06:05:08.777Z,102115.00
2022-08-10T06:07:42.362Z,102118.00
2022-08-10T06:10:31.011Z,102115.00
2022-08-10T06:13:30.221Z,102117.00
2022-08-10T06:16:07.221Z,102116.00
2022-08-10T06:18:37.131Z,102114.00
2022-08-10T06:21:05.768Z,102116.00
2022-08-10T06:23:37.072Z,102119.00
2022-08-10T06:26:10.405Z,102114.00
2022-08-10T06:29:02.873Z,102114.00
2022-08-10T06:31:47.510Z,102119.00
2022-08-10T06:34:25.263Z,102120.00
2022-08-10T06:36:56.292Z,102117.00
2022-08-10T06:39:35.582Z,102119.00
2022-08-10T06:42:17.617Z,102115.00
2022-08-10T06:44:57.846Z,102118.00
2022-08-10T06:47:33.553Z,102112.00
2022-08-10T06:50:11.389Z,102112.00
2022-08-10T06:52:40.978Z,102112.00
2022-08-10T06:55:16.937Z,102106.00
2022-08-10T06:57:59.445Z,102103.00
2022-08-10T07:00:34.388Z,102104.00
2022-08-10T07:03:09.657Z,102101.00
2022-08-10T07:05:45.963Z,102105.00
2022-08-10T07:08:21.697Z,102100.00
2022-08-10T07:10:54.785Z,102102.00
2022-08-10T07:14:16.918Z,102106.00
2022-08-10T07:16:14.482Z,102103.00
2022-08-10T07:18:45.399Z,102096.00
2022-08-10T07:21:15.221Z,102086.00
2022-08-10T07:23:58.260Z,102098.00
2022-08-10T07:26:31.911Z,102103.00
2022-08-10T07:29:02.069Z,102104.00
2022-08-10T07:31:54.959Z,102099.00
2022-08-10T07:34:29.075Z,102100.00
2022-08-10T07:37:03.730Z,102103.00
2022-08-10T07:39:57.823Z,102107.00
2022-08-10T07:42:31.160Z,102101.00
2022-08-10T07:45:00.122Z,102099.00
2022-08-10T07:47:53.699Z,102104.00
2022-08-10T07:50:26.523Z,102103.00
2022-08-10T07:52:59.451Z,102106.00
2022-08-10T07:56:01.645Z,102106.00
2022-08-10T07:58:20.928Z,102110.00
2022-08-10T08:00:53.187Z,102111.00
2022-08-10T08:03:26.683Z,102111.00
2022-08-10T08:06:02.995Z,102111.00
2022-08-10T08:08:36.212Z,102116.00
2022-08-10T08:11:05.762Z,102102.00
2022-08-10T08:13:37.229Z,102109.00
2022-08-10T08:16:20.343Z,102112.00
2022-08-10T08:19:24.104Z,102111.00
2022-08-10T08:24:05.291Z,102113.00
2022-08-10T08:24:36.995Z,102109.00
2022-08-10T08:27:07.709Z,102105.00
2022-08-10T08:29:41.837Z,102097.00
2022-08-10T08:32:11.479Z,102104.00
2022-08-10T08:34:43.551Z,102102.00
2022-08-10T08:38:26.545Z,102101.00
2022-08-10T08:40:04.032Z,102101.00
2022-08-10T08:43:05.304Z,102095.00
2022-08-10T08:46:01.416Z,102097.00
2022-08-10T08:49:07.864Z,102084.00
2022-08-10T08:52:17.276Z,102087.00
2022-08-10T08:54:59.084Z,102096.00
2022-08-10T08:57:50.330Z,102093.00
2022-08-10T09:00:34.422Z,102097.00
2022-08-10T09:03:48.150Z,102088.00
2022-08-10T09:06:50.972Z,102080.00
2022-08-10T09:09:57.415Z,102089.00
2022-08-10T09:12:45.980Z,102083.00
2022-08-10T09:15:40.249Z,102093.00
2022-08-10T09:18:22.168Z,102090.00
2022-08-10T09:21:05.519Z,102091.00
2022-08-10T09:24:01.791Z,102083.00
2022-08-10T09:26:46.528Z,102079.00
2022-08-10T09:29:27.567Z,102083.00
2022-08-10T09:36:15.411Z,102089.00
2022-08-10T09:36:22.103Z,102085.00
2022-08-10T09:38:23.757Z,102079.00
2022-08-10T09:41:17.363Z,102078.00
2022-08-10T09:44:01.374Z,102081.00
2022-08-10T09:46:51.674Z,102075.00
2022-08-10T09:49:54.278Z,102079.00
2022-08-10T09:52:38.036Z,102076.00
2022-08-10T09:55:21.630Z,102085.00
2022-08-10T09:58:01.759Z,102072.00
2022-08-10T10:00:39.065Z,102066.00
2022-08-10T10:03:20.547Z,102061.00
2022-08-10T10:06:02.632Z,102063.00
2022-08-10T10:08:43.220Z,102066.00
2022-08-10T10:11:21.432Z,102069.00
2022-08-10T10:14:11.848Z,102069.00
2022-08-10T10:17:00.949Z,102067.00
2022-08-10T10:19:56.219Z,102065.00
2022-08-10T10:22:46.829Z,102052.00
2022-08-10T10:25:50.608Z,102055.00
2022-08-10T10:29:11.507Z,102010.00
2022-08-10T10:31:31.634Z,102055.00
2022-08-10T10:34:14.288Z,102047.00
2022-08-10T10:36:45.781Z,102040.00
2022-08-10T10:39:20.712Z,102037.00
2022-08-10T10:42:06.069Z,102047.00
2022-08-10T10:44:57.034Z,102046.00
2022-08-10T10:47:46.495Z,102035.00
2022-08-10T10:50:22.957Z,102036.00
2022-08-10T10:53:07.022Z,102038.00
2022-08-10T10:56:14.866Z,102034.00
2022-08-10T10:58:49.696Z,102037.00
2022-08-10T11:01:38.867Z,102033.00
2022-08-10T11:04:24.087Z,102039.00
2022-08-10T11:07:04.024Z,102037.00
2022-08-10T11:10:09.598Z,102031.00
2022-08-10T11:12:45.085Z,102027.00
2022-08-10T11:15:27.983Z,102029.00
2022-08-10T11:18:05.442Z,102037.00
2022-08-10T11:20:53.131Z,102018.00
2022-08-10T11:23:35.793Z,102028.00
2022-08-10T11:26:14.676Z,102021.00
2022-08-10T11:28:52.299Z,102025.00
2022-08-10T11:31:29.924Z,102024.00
2022-08-10T11:34:49.061Z,102021.00
2022-08-10T11:37:10.758Z,102021.00
2022-08-10T11:39:52.537Z,102020.00
2022-08-10T11:42:36.108Z,102015.00
2022-08-10T11:45:12.581Z,102024.00
2022-08-10T11:47:49.174Z,102016.00
2022-08-10T11:50:26.152Z,102016.00
2022-08-10T11:53:14.870Z,102015.00
2022-08-10T11:55:55.546Z,102011.00
2022-08-10T11:58:45.211Z,102007.00
2022-08-10T12:01:18.389Z,102003.00
2022-08-10T12:03:49.283Z,102022.00
2022-08-10T12:06:45.487Z,102019.00
2022-08-10T12:10:09.093Z,102020.00
2022-08-10T12:12:01.925Z,102010.00
2022-08-10T12:14:36.183Z,102013.00
2022-08-10T12:17:14.431Z,102006.00
2022-08-10T12:19:59.486Z,102012.00
2022-08-10T12:22:41.929Z,102012.00
2022-08-10T12:25:51.620Z,102016.00
2022-08-10T12:28:15.047Z,102011.00
2022-08-10T12:30:53.026Z,102012.00
2022-08-10T12:33:26.139Z,102014.00
2022-08-10T12:36:20.317Z,102010.00
2022-08-10T12:39:02.866Z,102011.00
2022-08-10T12:41:44.979Z,102010.00
2022-08-10T12:44:21.723Z,102008.00
2022-08-10T12:46:59.621Z,102000.00
2022-08-10T12:49:35.224Z,101998.00
2022-08-10T12:52:15.768Z,101991.00
2022-08-10T12:54:48.444Z,102004.00
2022-08-10T12:57:24.008Z,101996.00
2022-08-10T12:59:55.052Z,102010.00
2022-08-10T13:02:29.611Z,102000.00
2022-08-10T13:05:03.419Z,101985.00
2022-08-10T13:08:24.579Z,101981.00
2022-08-10T13:10:24.538Z,101979.00
2022-08-10T13:12:56.826Z,101966.00
2022-08-10T13:15:49.381Z,101972.00
2022-08-10T13:18:27.210Z,101962.00
2022-08-10T13:21:03.763Z,101966.00
2022-08-10T13:24:03.499Z,101949.00
2022-08-10T13:27:10.910Z,101964.00
2022-08-10T13:29:36.377Z,101956.00
2022-08-10T13:32:10.564Z,101963.00
2022-08-10T13:34:46.436Z,101944.00
2022-08-10T13:37:21.194Z,101956.00
2022-08-10T13:40:00.277Z,101955.00
2022-08-10T13:42:35.247Z,101957.00
2022-08-10T13:45:10.474Z,101951.00
2022-08-10T13:47:49.771Z,101950.00
2022-08-10T13:50:33.545Z,101937.00
2022-08-10T13:53:13.256Z,101936.00
2022-08-10T13:55:55.356Z,101930.00
2022-08-10T13:58:31.445Z,101932.00
2022-08-10T14:01:03.909Z,101933.00
2022-08-10T14:03:38.817Z,101926.00
2022-08-10T14:06:11.681Z,101928.00
2022-08-10T14:08:42.227Z,101937.00
2022-08-10T14:11:18.058Z,101930.00
2022-08-10T14:13:56.018Z,101925.00
2022-08-10T14:16:25.589Z,101925.00
2022-08-10T14:18:58.021Z,101920.00
2022-08-10T14:21:27.089Z,101918.00
2022-08-10T14:23:55.842Z,101914.00
2022-08-10T14:26:28.757Z,101916.00
2022-08-10T14:29:06.494Z,101909.00
2022-08-10T14:31:38.013Z,101900.00
2022-08-10T14:34:09.570Z,101900.00
2022-08-10T14:36:48.663Z,101899.00
2022-08-10T14:39:27.018Z,101876.00
2022-08-10T14:42:06.651Z,101899.00
2022-08-10T14:44:49.336Z,101899.00
2022-08-10T14:47:53.148Z,101894.00
2022-08-10T14:50:31.388Z,101899.00
2022-08-10T14:53:10.128Z,101902.00
2022-08-10T14:55:58.622Z,101898.00
2022-08-10T14:58:32.196Z,101902.00
2022-08-10T15:01:05.068Z,101887.00
2022-08-10T15:03:58.894Z,101874.00
2022-08-10T15:06:30.661Z,101885.00
2022-08-10T15:09:19.562Z,101880.00
2022-08-10T15:12:13.200Z,101877.00
2022-08-10T15:14:50.097Z,101880.00
2022-08-10T15:17:29.396Z,101880.00
2022-08-10T15:20:15.605Z,101875.00
2022-08-10T15:22:53.028Z,101870.00
2022-08-10T15:25:26.384Z,101864.00
2022-08-10T15:28:05.045Z,101870.00
2022-08-10T15:30:42.924Z,101858.00
2022-08-10T15:34:02.374Z,101853.00
2022-08-10T15:36:45.013Z,101853.00
2022-08-10T15:40:25.444Z,101852.00
2022-08-10T15:42:21.000Z,101849.00
2022-08-10T15:44:53.465Z,101846.00
2022-08-10T15:47:27.054Z,101859.00
2022-08-10T15:50:08.454Z,101846.00
2022-08-10T15:53:00.717Z,101852.00
2022-08-10T15:55:44.404Z,101856.00
2022-08-10T15:58:37.582Z,101854.00
2022-08-10T16:02:12.604Z,101853.00
2022-08-10T16:04:09.090Z,101842.00
2022-08-10T16:06:44.869Z,101842.00
2022-08-10T16:10:24.091Z,101845.00
2022-08-10T16:12:29.142Z,101848.00
2022-08-10T16:15:04.413Z,101848.00
2022-08-10T16:17:54.556Z,101847.00
2022-08-10T16:20:52.367Z,101846.00
2022-08-10T16:23:29.504Z,101847.00
2022-08-10T16:26:14.627Z,101842.00
2022-08-10T16:28:50.980Z,101840.00
2022-08-10T16:31:23.159Z,101851.00
2022-08-10T16:33:55.033Z,101839.00
2022-08-10T16:36:32.437Z,101841.00
2022-08-10T16:39:03.538Z,101837.00
2022-08-10T16:42:03.558Z,101842.00
2022-08-10T16:44:31.976Z,101835.00
2022-08-10T16:47:03.185Z,101830.00
2022-08-10T16:49:37.637Z,101832.00
2022-08-10T16:52:08.755Z,101824.00
2022-08-10T16:54:41.405Z,101830.00
2022-08-10T16:57:13.996Z,101826.00
2022-08-10T16:59:44.419Z,101826.00
2022-08-10T17:02:18.457Z,101832.00
2022-08-10T17:04:50.320Z,101824.00
2022-08-10T17:07:25.090Z,101829.00
2022-08-10T17:10:07.744Z,101824.00
2022-08-10T17:12:39.997Z,101823.00
2022-08-10T17:15:11.684Z,101811.00
2022-08-10T17:17:46.593Z,101818.00
2022-08-10T17:20:30.450Z,101815.00
2022-08-10T17:23:06.738Z,101803.00
2022-08-10T17:25:48.381Z,101807.00
2022-08-10T17:28:32.913Z,101802.00
2022-08-10T17:31:23.527Z,101800.00
2022-08-10T17:33:56.259Z,101798.00
2022-08-10T17:36:29.671Z,101806.00
2022-08-10T17:38:59.874Z,101808.00
2022-08-10T17:41:34.317Z,101807.00
2022-08-10T17:44:06.931Z,101799.00
2022-08-10T17:46:39.638Z,101807.00
2022-08-10T17:49:11.831Z,101804.00
2022-08-10T17:51:43.562Z,101805.00
2022-08-10T17:54:26.610Z,101801.00
2022-08-10T17:57:01.694Z,101803.00
2022-08-10T17:59:33.140Z,101805.00
2022-08-10T18:02:06.112Z,101800.00
2022-08-10T18:04:42.022Z,101805.00
2022-08-10T18:07:13.119Z,101790.00
2022-08-10T18:09:50.569Z,101797.00
2022-08-10T18:12:33.905Z,101793.00
2022-08-10T18:15:13.594Z,101794.00
2022-08-10T18:17:48.043Z,101793.00
2022-08-10T18:20:20.042Z,101793.00
2022-08-10T18:22:52.303Z,101800.00
2022-08-10T18:25:24.642Z,101801.00
2022-08-10T18:28:05.259Z,101796.00
2022-08-10T18:30:45.471Z,101801.00
2022-08-10T18:33:18.247Z,101784.00
2022-08-10T18:35:47.993Z,101802.00
2022-08-10T18:38:18.361Z,101800.00
2022-08-10T18:40:54.657Z,101800.00
2022-08-10T18:44:06.299Z,101797.00
2022-08-10T18:46:29.483Z,101785.00
2022-08-10T18:49:06.389Z,101803.00
2022-08-10T18:51:47.006Z,101799.00
2022-08-10T18:54:31.322Z,101803.00
2022-08-10T18:57:32.241Z,101795.00
2022-08-10T19:00:10.640Z,101807.00
2022-08-10T19:03:32.769Z,101812.00
2022-08-10T19:06:23.538Z,101815.00
2022-08-10T19:09:46.499Z,101808.00
2022-08-10T19:12:31.402Z,101808.00
2022-08-10T19:15:15.719Z,101815.00
2022-08-10T19:18:01.267Z,101814.00
2022-08-10T19:20:41.330Z,101809.00
2022-08-10T19:23:34.353Z,101814.00
2022-08-10T19:26:41.548Z,101809.00
2022-08-10T19:30:12.226Z,101797.00
2022-08-10T19:32:32.497Z,101802.00
2022-08-10T19:35:12.009Z,101800.00
2022-08-10T19:38:00.650Z,101797.00
2022-08-10T19:40:44.695Z,101801.00
2022-08-10T19:43:59.218Z,101794.00
2022-08-10T19:46:28.288Z,101800.00
2022-08-10T19:49:08.401Z,101796.00
2022-08-10T19:51:52.498Z,101796.00
2022-08-10T19:54:33.864Z,101800.00
2022-08-10T19:57:12.893Z,101809.00
2022-08-10T20:00:18.669Z,101808.00
2022-08-10T20:02:57.926Z,101805.00
2022-08-10T20:05:34.708Z,101813.00
2022-08-10T20:08:10.520Z,101817.00
2022-08-10T20:10:49.725Z,101815.00
2022-08-10T20:13:30.440Z,101822.00
2022-08-10T20:16:06.085Z,101816.00
2022-08-10T20:18:40.652Z,101823.00
2022-08-10T20:21:15.585Z,101833.00
2022-08-10T20:23:55.901Z,101823.00
2022-08-10T20:26:29.388Z,101821.00
2022-08-10T20:29:16.454Z,101819.00
2022-08-10T20:32:05.315Z,101813.00
2022-08-10T20:34:44.224Z,101823.00
2022-08-10T20:37:43.436Z,101818.00
2022-08-10T20:40:22.009Z,101827.00
2022-08-10T20:43:06.024Z,101810.00
2022-08-10T20:46:07.071Z,101804.00
2022-08-10T20:48:41.464Z,101823.00
2022-08-10T20:51:15.956Z,101835.00
2022-08-10T20:53:52.817Z,101829.00
2022-08-10T20:56:35.815Z,101830.00
2022-08-10T20:59:19.605Z,101823.00
